Van Kinsbergen — PAKB — position and weather

sailwx.info

Track history (hours):
 
Tides and Currents Weather Stations Pressure Air Temp Water Temp Dewpoint Dewpoint Depression Visibility Wind Speed Wind Dir Waves Ship Positions

Van Kinsbergen

Last reported at 2018-Apr-26 23:00 UTC. Time now 2018-Apr-26 23:14 UTC.
Position N 54°14' E 009°37'.

Length 40 m; draft 3.1 m.

Type: Military. MMSI: 244736000.

Date/timePositionNaut miles runAvg speedWind from/ knotsBaromVisibWave heightAir tempDewpointWater temp
2018-Apr-26 23:00N 54°14' E 009°37'3 6.7
2018-Apr-26 22:31N 54°17' E 009°39'4 7.5
2018-Apr-26 22:00N 54°20' E 009°44'4 8.0
2018-Apr-26 21:30N 54°22' E 009°50'32 0.7
2018-Apr-25 01:54N 54°41' E 010°35'3 8.2
2018-Apr-25 01:30N 54°39' E 010°40'6 7.4
2018-Apr-25 00:45N 54°41' E 010°49'2 7.4
2018-Apr-25 00:30N 54°42' E 010°51'4 7.5
2018-Apr-25 00:00N 54°46' E 010°51'4 8.2
2018-Apr-24 23:30N 54°50' E 010°51'5 9.4
2018-Apr-24 23:00N 54°55' E 010°53'4 8.8
2018-Apr-24 22:30N 54°57' E 010°58'4 8.7
2018-Apr-24 22:00N 55°02' E 011°01'4 8.3
2018-Apr-24 21:30N 55°06' E 011°02'5 9.5
2018-Apr-24 21:00N 55°10' E 011°04'7 9.1
2018-Apr-24 20:17N 55°17' E 011°03'14 1.1
2018-Apr-24 07:03N 55°03' E 011°03'410.5
2018-Apr-24 06:42N 54°59' E 011°02'210.2
2018-Apr-24 06:31N 54°58' E 010°60'5 9.4
2018-Apr-24 06:00N 54°54' E 010°55'5 9.9
2018-Apr-24 05:30N 54°49' E 010°53'510.5
2018-Apr-24 05:01N 54°44' E 010°54'4 8.9
2018-Apr-24 04:30N 54°40' E 010°49'5 9.7
2018-Apr-24 04:00N 54°38' E 010°42'5 9.8
2018-Apr-24 03:30N 54°41' E 010°35'510.1
2018-Apr-24 03:01N 54°41' E 010°26'510.1
2018-Apr-24 02:29N 54°41' E 010°17'8 8.8
2018-Apr-24 01:37N 54°48' E 010°11'110.0
2018-Apr-24 01:30N 54°49' E 010°11'5 9.9
2018-Apr-24 00:59N 54°54' E 010°11'9 9.2
2018-Apr-24 00:01N 55°03' E 010°12'7 0.6
2018-Apr-23 12:07N 54°56' E 010°10'1 8.9
2018-Apr-23 12:00N 54°55' E 010°10'26 0.9
2018-Apr-22 07:13N 54°30' E 010°16'511.9
2018-Apr-22 06:45N 54°35' E 010°13'312.0
2018-Apr-22 06:28N 54°38' E 010°09'510.9
2018-Apr-22 05:59N 54°43' E 010°05'612.1
2018-Apr-22 05:30N 54°47' E 009°59'610.3
2018-Apr-22 04:57N 54°50' E 009°50'6 0.2
2018-Apr-21 04:46N 54°48' E 009°59'18 9.7
2018-Apr-21 02:56N 54°46' E 010°30'410.0
2018-Apr-21 02:30N 54°44' E 010°35'6 9.4
2018-Apr-21 01:55N 54°42' E 010°44'410.0
2018-Apr-21 01:30N 54°42' E 010°51'510.3
2018-Apr-21 01:00N 54°47' E 010°51'5 9.9
2018-Apr-21 00:30N 54°52' E 010°52'5 9.7
2018-Apr-21 00:01N 54°56' E 010°56'5 9.8
2018-Apr-20 23:30N 55°00' E 011°01'611.3
2018-Apr-20 23:00N 55°06' E 011°02'510.4
2018-Apr-20 22:30N 55°11' E 011°04'71 7.9
2018-Apr-20 13:28N 56°16' E 011°58'19 9.4
2018-Apr-20 11:27N 56°09' E 012°30'510.4
2018-Apr-20 11:00N 56°05' E 012°36'510.0
2018-Apr-20 10:30N 56°01' E 012°40'5 9.1
2018-Apr-20 10:01N 55°57' E 012°43'4 8.1
2018-Apr-20 09:30N 55°53' E 012°44'5 9.9
2018-Apr-20 09:00N 55°48' E 012°43'510.1
2018-Apr-20 08:30N 55°43' E 012°39'3 5.6
2018-Apr-20 07:58N 55°41' E 012°36'0 0.0
2018-Apr-20 07:28N 55°41' E 012°36'0 0.0
2018-Apr-20 06:58N 55°41' E 012°36'0 0.0
2018-Apr-20 06:28N 55°41' E 012°36'0 0.0
2018-Apr-20 05:58N 55°41' E 012°36'0 0.0
2018-Apr-20 05:28N 55°41' E 012°36'0 0.0
2018-Apr-20 04:58N 55°41' E 012°36'0 0.0
2018-Apr-20 04:28N 55°41' E 012°36'0 0.0
2018-Apr-20 03:58N 55°41' E 012°36'0 0.0
2018-Apr-20 03:28N 55°41' E 012°36'0 0.0
2018-Apr-20 02:58N 55°41' E 012°36'0 0.0
2018-Apr-20 02:28N 55°41' E 012°36'0 0.0
2018-Apr-20 01:58N 55°41' E 012°36'0 0.0
2018-Apr-20 01:28N 55°41' E 012°36'0 0.0
2018-Apr-20 00:58N 55°41' E 012°36'0 0.0
2018-Apr-20 00:28N 55°41' E 012°36'0 0.0
2018-Apr-19 23:58N 55°41' E 012°36'0 0.0
2018-Apr-19 23:28N 55°41' E 012°36'0 0.0
2018-Apr-19 22:58N 55°41' E 012°36'0 0.0
2018-Apr-19 22:28N 55°41' E 012°36'0 0.0
2018-Apr-19 21:58N 55°41' E 012°36'0 0.0
2018-Apr-19 21:28N 55°41' E 012°36'0 0.0
2018-Apr-19 20:58N 55°41' E 012°36'0 0.0
2018-Apr-19 20:28N 55°41' E 012°36'0 0.0
2018-Apr-19 19:58N 55°41' E 012°36'0 0.0
2018-Apr-19 19:28N 55°41' E 012°36'0 0.0
2018-Apr-19 18:58N 55°41' E 012°36'0 0.0
2018-Apr-19 18:28N 55°41' E 012°36'0 0.0
2018-Apr-19 17:58N 55°41' E 012°36'0 0.0
2018-Apr-19 17:28N 55°41' E 012°36'0 0.0
2018-Apr-19 16:58N 55°41' E 012°36'0 0.0
2018-Apr-19 16:28N 55°41' E 012°36'0 0.0
2018-Apr-19 15:58N 55°41' E 012°36'0 0.0
2018-Apr-19 15:28N 55°41' E 012°36'0 0.0
2018-Apr-19 14:58N 55°41' E 012°36'0 0.0
2018-Apr-19 14:28N 55°41' E 012°36'0 0.0
2018-Apr-19 13:58N 55°41' E 012°36'0 0.0
2018-Apr-19 13:28N 55°41' E 012°36'0 0.0
2018-Apr-19 12:58N 55°41' E 012°36'0 0.0
2018-Apr-19 12:28N 55°41' E 012°36'0 0.0
2018-Apr-19 11:58N 55°41' E 012°36'0 0.0
2018-Apr-19 11:28N 55°41' E 012°36'0 0.0
2018-Apr-19 10:55N 55°41' E 012°36'0 0.0
2018-Apr-19 10:28N 55°41' E 012°36'0 0.0
2018-Apr-19 09:58N 55°41' E 012°36'0 0.0
2018-Apr-19 09:28N 55°41' E 012°36'0 0.0
2018-Apr-19 08:58N 55°41' E 012°36'0 0.0
2018-Apr-19 08:28N 55°41' E 012°36'0 0.0
2018-Apr-19 08:01N 55°41' E 012°36'2 3.2
2018-Apr-19 07:30N 55°42' E 012°38'5 9.3
2018-Apr-19 07:00N 55°37' E 012°42'4 9.0
2018-Apr-19 06:31N 55°33' E 012°43'510.0
2018-Apr-19 05:59N 55°28' E 012°43'5 9.9
2018-Apr-19 05:30N 55°23' E 012°42'5 9.8
2018-Apr-19 05:00N 55°18' E 012°40'5 9.6
2018-Apr-19 04:30N 55°13' E 012°40'6 9.3
2018-Apr-19 03:55N 55°08' E 012°40'43 8.5
2018-Apr-18 22:54N 54°28' E 012°15'410.1
2018-Apr-18 22:30N 54°25' E 012°10'5 9.4
2018-Apr-18 22:00N 54°24' E 012°02'17 9.5
2018-Apr-18 20:13N 54°29' E 011°34'210.0
2018-Apr-18 19:59N 54°30' E 011°30'510.1
2018-Apr-18 19:30N 54°32' E 011°23'510.3
2018-Apr-18 19:00N 54°34' E 011°15'5 9.8
2018-Apr-18 18:30N 54°36' E 011°07'5 9.9
2018-Apr-18 18:00N 54°39' E 011°00'4 8.6
2018-Apr-18 17:30N 54°41' E 010°54'5 9.0
2018-Apr-18 17:00N 54°45' E 010°51'510.9
2018-Apr-18 16:30N 54°51' E 010°52'611.5
2018-Apr-18 16:00N 54°56' E 010°55'612.3
2018-Apr-18 15:30N 55°01' E 011°01'612.7
2018-Apr-18 15:00N 55°08' E 011°02'3 1.2
2018-Apr-18 12:56N 55°05' E 011°04'4 9.9
2018-Apr-18 12:31N 55°02' E 011°08'3 6.3
2018-Apr-18 12:00N 55°02' E 011°13'5 9.8
2018-Apr-18 11:30N 55°05' E 011°20'510.3
2018-Apr-18 11:00N 55°04' E 011°29'5 9.5
2018-Apr-18 10:30N 55°02' E 011°36'5 9.7
2018-Apr-18 10:00N 55°01' E 011°44'5 9.2
2018-Apr-18 09:30N 54°59' E 011°51'1 0.5
2018-Apr-18 07:20N 54°58' E 011°53'3 8.1
2018-Apr-18 07:00N 55°00' E 011°50'5 9.0
2018-Apr-18 06:30N 55°01' E 011°42'5 9.4
2018-Apr-18 06:00N 55°04' E 011°36'5 9.5
2018-Apr-18 05:30N 55°05' E 011°28'5 9.6
2018-Apr-18 05:00N 55°06' E 011°20'5 8.9
2018-Apr-18 04:28N 55°02' E 011°14'4 9.4
2018-Apr-18 04:00N 55°00' E 011°07'4 9.0
2018-Apr-18 03:30N 54°58' E 011°00'4 8.5
2018-Apr-18 03:00N 54°55' E 010°55'4 8.3
2018-Apr-18 02:30N 54°51' E 010°53'5 9.4
2018-Apr-18 02:00N 54°46' E 010°53'4 7.5
2018-Apr-18 01:31N 54°43' E 010°51'5 9.4
2018-Apr-18 01:00N 54°40' E 010°45'5 9.5
2018-Apr-18 00:30N 54°41' E 010°37'6 9.6
2018-Apr-17 23:55N 54°42' E 010°27'16 4.2
2018-Apr-17 19:58N 54°50' E 010°03'16 1.4
2018-Apr-17 08:21N 54°46' E 010°29'3 8.8
2018-Apr-17 08:00N 54°44' E 010°34'4 9.0
2018-Apr-17 07:30N 54°42' E 010°40'6 9.1
2018-Apr-17 06:49N 54°42' E 010°51'3 8.4
2018-Apr-17 06:31N 54°45' E 010°51'5 9.9
2018-Apr-17 06:01N 54°50' E 010°51'510.5
2018-Apr-17 05:30N 54°55' E 010°53'5 9.5
2018-Apr-17 05:00N 54°58' E 010°59'5 9.9
2018-Apr-17 04:30N 55°03' E 011°01'610.2
2018-Apr-17 03:56N 55°08' E 011°02'  
Track history (hours):
 
Tides and Currents Weather Stations Pressure Air Temp Water Temp Dewpoint Dewpoint Depression Visibility Wind Speed Wind Dir Waves Ship Positions

Van Kinsbergen

Last reported at 2018-Apr-26 23:00 UTC. Time now 2018-Apr-26 23:14 UTC.
Position N 54°14' E 009°37'.

Length 40 m; draft 3.1 m.

Type: Military. MMSI: 244736000.

Date/timePositionNaut miles runAvg speedWind from/ knotsBaromVisibWave heightAir tempDewpointWater temp
2018-Apr-26 23:00N 54°14' E 009°37'3 6.7
2018-Apr-26 22:31N 54°17' E 009°39'4 7.5
2018-Apr-26 22:00N 54°20' E 009°44'4 8.0
2018-Apr-26 21:30N 54°22' E 009°50'32 0.7
2018-Apr-25 01:54N 54°41' E 010°35'3 8.2
2018-Apr-25 01:30N 54°39' E 010°40'6 7.4
2018-Apr-25 00:45N 54°41' E 010°49'2 7.4
2018-Apr-25 00:30N 54°42' E 010°51'4 7.5
2018-Apr-25 00:00N 54°46' E 010°51'4 8.2
2018-Apr-24 23:30N 54°50' E 010°51'5 9.4
2018-Apr-24 23:00N 54°55' E 010°53'4 8.8
2018-Apr-24 22:30N 54°57' E 010°58'4 8.7
2018-Apr-24 22:00N 55°02' E 011°01'4 8.3
2018-Apr-24 21:30N 55°06' E 011°02'5 9.5
2018-Apr-24 21:00N 55°10' E 011°04'7 9.1
2018-Apr-24 20:17N 55°17' E 011°03'14 1.1
2018-Apr-24 07:03N 55°03' E 011°03'410.5
2018-Apr-24 06:42N 54°59' E 011°02'210.2
2018-Apr-24 06:31N 54°58' E 010°60'5 9.4
2018-Apr-24 06:00N 54°54' E 010°55'5 9.9
2018-Apr-24 05:30N 54°49' E 010°53'510.5
2018-Apr-24 05:01N 54°44' E 010°54'4 8.9
2018-Apr-24 04:30N 54°40' E 010°49'5 9.7
2018-Apr-24 04:00N 54°38' E 010°42'5 9.8
2018-Apr-24 03:30N 54°41' E 010°35'510.1
2018-Apr-24 03:01N 54°41' E 010°26'510.1
2018-Apr-24 02:29N 54°41' E 010°17'8 8.8
2018-Apr-24 01:37N 54°48' E 010°11'110.0
2018-Apr-24 01:30N 54°49' E 010°11'5 9.9
2018-Apr-24 00:59N 54°54' E 010°11'9 9.2
2018-Apr-24 00:01N 55°03' E 010°12'7 0.6
2018-Apr-23 12:07N 54°56' E 010°10'1 8.9
2018-Apr-23 12:00N 54°55' E 010°10'26 0.9
2018-Apr-22 07:13N 54°30' E 010°16'511.9
2018-Apr-22 06:45N 54°35' E 010°13'312.0
2018-Apr-22 06:28N 54°38' E 010°09'510.9
2018-Apr-22 05:59N 54°43' E 010°05'612.1
2018-Apr-22 05:30N 54°47' E 009°59'610.3
2018-Apr-22 04:57N 54°50' E 009°50'6 0.2
2018-Apr-21 04:46N 54°48' E 009°59'18 9.7
2018-Apr-21 02:56N 54°46' E 010°30'410.0
2018-Apr-21 02:30N 54°44' E 010°35'6 9.4
2018-Apr-21 01:55N 54°42' E 010°44'410.0
2018-Apr-21 01:30N 54°42' E 010°51'510.3
2018-Apr-21 01:00N 54°47' E 010°51'5 9.9
2018-Apr-21 00:30N 54°52' E 010°52'5 9.7
2018-Apr-21 00:01N 54°56' E 010°56'5 9.8
2018-Apr-20 23:30N 55°00' E 011°01'611.3
2018-Apr-20 23:00N 55°06' E 011°02'510.4
2018-Apr-20 22:30N 55°11' E 011°04'71 7.9
2018-Apr-20 13:28N 56°16' E 011°58'19 9.4
2018-Apr-20 11:27N 56°09' E 012°30'510.4
2018-Apr-20 11:00N 56°05' E 012°36'510.0
2018-Apr-20 10:30N 56°01' E 012°40'5 9.1
2018-Apr-20 10:01N 55°57' E 012°43'4 8.1
2018-Apr-20 09:30N 55°53' E 012°44'5 9.9
2018-Apr-20 09:00N 55°48' E 012°43'510.1
2018-Apr-20 08:30N 55°43' E 012°39'3 5.6
2018-Apr-20 07:58N 55°41' E 012°36'0 0.0
2018-Apr-20 07:28N 55°41' E 012°36'0 0.0
2018-Apr-20 06:58N 55°41' E 012°36'0 0.0
2018-Apr-20 06:28N 55°41' E 012°36'0 0.0
2018-Apr-20 05:58N 55°41' E 012°36'0 0.0
2018-Apr-20 05:28N 55°41' E 012°36'0 0.0
2018-Apr-20 04:58N 55°41' E 012°36'0 0.0
2018-Apr-20 04:28N 55°41' E 012°36'0 0.0
2018-Apr-20 03:58N 55°41' E 012°36'0 0.0
2018-Apr-20 03:28N 55°41' E 012°36'0 0.0
2018-Apr-20 02:58N 55°41' E 012°36'0 0.0
2018-Apr-20 02:28N 55°41' E 012°36'0 0.0
2018-Apr-20 01:58N 55°41' E 012°36'0 0.0
2018-Apr-20 01:28N 55°41' E 012°36'0 0.0
2018-Apr-20 00:58N 55°41' E 012°36'0 0.0
2018-Apr-20 00:28N 55°41' E 012°36'0 0.0
2018-Apr-19 23:58N 55°41' E 012°36'0 0.0
2018-Apr-19 23:28N 55°41' E 012°36'0 0.0
2018-Apr-19 22:58N 55°41' E 012°36'0 0.0
2018-Apr-19 22:28N 55°41' E 012°36'0 0.0
2018-Apr-19 21:58N 55°41' E 012°36'0 0.0
2018-Apr-19 21:28N 55°41' E 012°36'0 0.0
2018-Apr-19 20:58N 55°41' E 012°36'0 0.0
2018-Apr-19 20:28N 55°41' E 012°36'0 0.0
2018-Apr-19 19:58N 55°41' E 012°36'0 0.0
2018-Apr-19 19:28N 55°41' E 012°36'0 0.0
2018-Apr-19 18:58N 55°41' E 012°36'0 0.0
2018-Apr-19 18:28N 55°41' E 012°36'0 0.0
2018-Apr-19 17:58N 55°41' E 012°36'0 0.0
2018-Apr-19 17:28N 55°41' E 012°36'0 0.0
2018-Apr-19 16:58N 55°41' E 012°36'0 0.0
2018-Apr-19 16:28N 55°41' E 012°36'0 0.0
2018-Apr-19 15:58N 55°41' E 012°36'0 0.0
2018-Apr-19 15:28N 55°41' E 012°36'0 0.0
2018-Apr-19 14:58N 55°41' E 012°36'0 0.0
2018-Apr-19 14:28N 55°41' E 012°36'0 0.0
2018-Apr-19 13:58N 55°41' E 012°36'0 0.0
2018-Apr-19 13:28N 55°41' E 012°36'0 0.0
2018-Apr-19 12:58N 55°41' E 012°36'0 0.0
2018-Apr-19 12:28N 55°41' E 012°36'0 0.0
2018-Apr-19 11:58N 55°41' E 012°36'0 0.0
2018-Apr-19 11:28N 55°41' E 012°36'0 0.0
2018-Apr-19 10:55N 55°41' E 012°36'0 0.0
2018-Apr-19 10:28N 55°41' E 012°36'0 0.0
2018-Apr-19 09:58N 55°41' E 012°36'0 0.0
2018-Apr-19 09:28N 55°41' E 012°36'0 0.0
2018-Apr-19 08:58N 55°41' E 012°36'0 0.0
2018-Apr-19 08:28N 55°41' E 012°36'0 0.0
2018-Apr-19 08:01N 55°41' E 012°36'2 3.2
2018-Apr-19 07:30N 55°42' E 012°38'5 9.3
2018-Apr-19 07:00N 55°37' E 012°42'4 9.0
2018-Apr-19 06:31N 55°33' E 012°43'510.0
2018-Apr-19 05:59N 55°28' E 012°43'5 9.9
2018-Apr-19 05:30N 55°23' E 012°42'5 9.8
2018-Apr-19 05:00N 55°18' E 012°40'5 9.6
2018-Apr-19 04:30N 55°13' E 012°40'6 9.3
2018-Apr-19 03:55N 55°08' E 012°40'43 8.5
2018-Apr-18 22:54N 54°28' E 012°15'410.1
2018-Apr-18 22:30N 54°25' E 012°10'5 9.4
2018-Apr-18 22:00N 54°24' E 012°02'17 9.5
2018-Apr-18 20:13N 54°29' E 011°34'210.0
2018-Apr-18 19:59N 54°30' E 011°30'510.1
2018-Apr-18 19:30N 54°32' E 011°23'510.3
2018-Apr-18 19:00N 54°34' E 011°15'5 9.8
2018-Apr-18 18:30N 54°36' E 011°07'5 9.9
2018-Apr-18 18:00N 54°39' E 011°00'4 8.6
2018-Apr-18 17:30N 54°41' E 010°54'5 9.0
2018-Apr-18 17:00N 54°45' E 010°51'510.9
2018-Apr-18 16:30N 54°51' E 010°52'611.5
2018-Apr-18 16:00N 54°56' E 010°55'612.3
2018-Apr-18 15:30N 55°01' E 011°01'612.7
2018-Apr-18 15:00N 55°08' E 011°02'3 1.2
2018-Apr-18 12:56N 55°05' E 011°04'4 9.9
2018-Apr-18 12:31N 55°02' E 011°08'3 6.3
2018-Apr-18 12:00N 55°02' E 011°13'5 9.8
2018-Apr-18 11:30N 55°05' E 011°20'510.3
2018-Apr-18 11:00N 55°04' E 011°29'5 9.5
2018-Apr-18 10:30N 55°02' E 011°36'5 9.7
2018-Apr-18 10:00N 55°01' E 011°44'5 9.2
2018-Apr-18 09:30N 54°59' E 011°51'1 0.5
2018-Apr-18 07:20N 54°58' E 011°53'3 8.1
2018-Apr-18 07:00N 55°00' E 011°50'5 9.0
2018-Apr-18 06:30N 55°01' E 011°42'5 9.4
2018-Apr-18 06:00N 55°04' E 011°36'5 9.5
2018-Apr-18 05:30N 55°05' E 011°28'5 9.6
2018-Apr-18 05:00N 55°06' E 011°20'5 8.9
2018-Apr-18 04:28N 55°02' E 011°14'4 9.4
2018-Apr-18 04:00N 55°00' E 011°07'4 9.0
2018-Apr-18 03:30N 54°58' E 011°00'4 8.5
2018-Apr-18 03:00N 54°55' E 010°55'4 8.3
2018-Apr-18 02:30N 54°51' E 010°53'5 9.4
2018-Apr-18 02:00N 54°46' E 010°53'4 7.5
2018-Apr-18 01:31N 54°43' E 010°51'5 9.4
2018-Apr-18 01:00N 54°40' E 010°45'5 9.5
2018-Apr-18 00:30N 54°41' E 010°37'6 9.6
2018-Apr-17 23:55N 54°42' E 010°27'16 4.2
2018-Apr-17 19:58N 54°50' E 010°03'16 1.4
2018-Apr-17 08:21N 54°46' E 010°29'3 8.8
2018-Apr-17 08:00N 54°44' E 010°34'4 9.0
2018-Apr-17 07:30N 54°42' E 010°40'6 9.1
2018-Apr-17 06:49N 54°42' E 010°51'3 8.4
2018-Apr-17 06:31N 54°45' E 010°51'5 9.9
2018-Apr-17 06:01N 54°50' E 010°51'510.5
2018-Apr-17 05:30N 54°55' E 010°53'5 9.5
2018-Apr-17 05:00N 54°58' E 010°59'5 9.9
2018-Apr-17 04:30N 55°03' E 011°01'610.2
2018-Apr-17 03:56N 55°08' E 011°02'  

Dump ship's entire track history